Terminal Aerodrome Forecast
Issued by NWS

Home | Current Version | Previous Version | Text Only | Print | Product List | Glossary On
Versions: 1 2 3 4 5 6 7 8 9 10 11 12 13 14 15 16 17 18 19 20 21 22 23 24 25 26 27 28 29 30 31 32 33 34 35 36
000
FTUS43 KLOT 290254 AAA
TAFORD
TAF AMD
KORD 290254Z 2903/3006 22006KT P6SM SCT050 SCT100 BKN150
     FM290500 22006KT P6SM VCSH BKN070 BKN100
     FM291000 24008KT 6SM -SHRA VCTS SCT020 OVC040CB
     FM291300 29011G16KT P6SM SCT020 BKN100
     FM291800 29012G19KT P6SM SCT150
     FM300100 27010KT P6SM SCT250=

USA.gov is the U.S. government's official web portal to all federal, state and local government web resources and services.